Time;durP1;ratioP1;P1;durP2;ratioP2;P2;SDS_P1;SDS_P2;PMS_P1;PMS_P2;Temp;Humidity;BMP_temperature;BMP_pressure;BME280_temperature;BME280_humidity;BME280_pressure;Samples;Min_cycle;Max_cycle;Signal;HPM_P1;HPM_P2
2023/02/13 00:01:17;;;;;;;21.63;8.23;;;8.00;99.90;;;;;;4969872;28;20723;-71
2023/02/13 00:03:42;;;;;;;18.15;8.07;;;8.00;99.90;;;;;;4968237;28;20045;-71
2023/02/13 00:06:08;;;;;;;25.05;9.27;;;8.10;99.90;;;;;;4968186;28;20045;-71
2023/02/13 00:08:34;;;;;;;26.02;9.57;;;8.00;99.90;;;;;;4969923;28;20118;-71
2023/02/13 00:11:00;;;;;;;27.13;9.55;;;8.00;99.90;;;;;;4969149;28;20089;-71
2023/02/13 00:13:25;;;;;;;22.38;9.75;;;8.00;99.90;;;;;;4969346;28;20058;-71
2023/02/13 00:15:59;;;;;;;21.20;8.77;;;8.00;99.90;;;;;;4968810;28;20089;-71
2023/02/13 00:18:26;;;;;;;22.50;8.98;;;8.00;99.90;;;;;;4969670;28;20031;-71
2023/02/13 00:21:03;;;;;;;21.17;9.38;;;8.00;99.90;;;;;;4969020;28;20042;-71
2023/02/13 00:23:30;;;;;;;23.55;8.63;;;8.00;99.90;;;;;;4967773;28;20728;-72
2023/02/13 00:25:56;;;;;;;24.50;10.02;;;8.00;99.90;;;;;;4970651;28;20069;-71
2023/02/13 00:28:22;;;;;;;24.30;10.10;;;8.00;99.90;;;;;;4971538;28;20033;-71
2023/02/13 00:30:48;;;;;;;24.50;9.70;;;7.90;99.90;;;;;;4968653;28;20031;-71
2023/02/13 00:33:13;;;;;;;22.27;9.18;;;7.90;99.90;;;;;;4968263;28;20042;-71
2023/02/13 00:35:39;;;;;;;20.80;8.93;;;7.90;99.90;;;;;;4967561;28;20038;-71
2023/02/13 00:38:04;;;;;;;20.92;9.35;;;7.90;99.90;;;;;;4967094;28;20054;-71
2023/02/13 00:40:30;;;;;;;22.02;9.73;;;8.00;99.90;;;;;;4968999;28;20133;-71
2023/02/13 00:42:55;;;;;;;24.10;9.75;;;8.00;99.90;;;;;;4968777;28;20039;-71
2023/02/13 00:45:22;;;;;;;19.75;8.82;;;8.00;99.90;;;;;;4967714;28;20395;-71
2023/02/13 00:47:48;;;;;;;24.48;9.23;;;8.00;99.90;;;;;;4968284;28;20035;-72
2023/02/13 00:50:13;;;;;;;25.08;10.25;;;8.00;99.90;;;;;;4966988;28;20509;-71
2023/02/13 00:52:39;;;;;;;25.08;9.60;;;7.90;99.90;;;;;;4968529;28;20081;-71
2023/02/13 00:55:05;;;;;;;21.88;9.75;;;7.90;99.90;;;;;;4968914;28;20061;-71
2023/02/13 00:57:30;;;;;;;20.88;8.65;;;7.90;99.90;;;;;;4970714;28;20384;-71
2023/02/13 00:59:57;;;;;;;21.50;8.80;;;7.90;99.90;;;;;;4968448;28;20034;-71
2023/02/13 01:02:22;;;;;;;25.92;9.30;;;7.90;99.90;;;;;;4970616;28;20038;-72
2023/02/13 01:04:48;;;;;;;22.73;10.40;;;8.00;99.90;;;;;;4968035;28;20038;-71
2023/02/13 01:07:14;;;;;;;27.40;10.95;;;7.90;99.90;;;;;;4972007;28;20039;-72
2023/02/13 01:09:39;;;;;;;25.70;10.32;;;8.00;99.90;;;;;;4968474;28;20034;-72
2023/02/13 01:12:05;;;;;;;25.05;8.70;;;7.90;99.90;;;;;;4967272;28;20062;-72
2023/02/13 01:14:30;;;;;;;21.13;9.18;;;8.00;99.90;;;;;;4974626;28;20750;-72
2023/02/13 01:16:56;;;;;;;22.90;9.40;;;7.90;99.90;;;;;;4968771;28;20046;-71
2023/02/13 01:19:21;;;;;;;24.55;9.10;;;7.90;99.90;;;;;;4971451;28;20130;-71
2023/02/13 01:21:50;;;;;;;20.27;8.20;;;7.90;99.90;;;;;;4967238;28;20027;-72
2023/02/13 01:24:16;;;;;;;21.15;8.65;;;7.90;99.90;;;;;;4972069;28;20035;-71
2023/02/13 01:26:42;;;;;;;18.58;8.43;;;7.90;99.90;;;;;;4969219;28;20078;-71
2023/02/13 01:29:11;;;;;;;21.88;8.95;;;7.90;99.90;;;;;;4969201;28;20034;-73
2023/02/13 01:31:36;;;;;;;20.92;9.80;;;7.90;99.90;;;;;;4967351;28;20038;-71
2023/02/13 01:34:02;;;;;;;23.38;9.23;;;8.00;99.90;;;;;;4968208;28;20099;-71
2023/02/13 01:36:28;;;;;;;20.77;8.70;;;7.90;99.90;;;;;;4966960;28;20046;-73
2023/02/13 01:38:55;;;;;;;20.08;8.23;;;8.00;99.90;;;;;;4968337;28;20053;-72
2023/02/13 01:41:21;;;;;;;22.48;9.10;;;7.90;99.90;;;;;;4968555;28;20377;-71
2023/02/13 01:43:54;;;;;;;24.40;9.20;;;8.00;99.90;;;;;;4967652;28;20538;-72
2023/02/13 01:46:23;;;;;;;19.77;7.93;;;7.90;99.90;;;;;;4968990;28;20049;-72
2023/02/13 01:48:52;;;;;;;19.25;8.73;;;7.90;99.90;;;;;;4967580;28;20034;-72
2023/02/13 01:51:23;;;;;;;18.65;7.88;;;8.00;99.90;;;;;;4967650;28;20035;-71
2023/02/13 01:53:56;;;;;;;23.50;8.80;;;8.00;99.90;;;;;;4968544;28;20086;-71
2023/02/13 01:56:38;;;;;;;25.15;8.70;;;8.10;99.90;;;;;;4966932;28;20676;-72
2023/02/13 01:59:08;;;;;;;19.75;8.65;;;8.00;99.90;;;;;;4963209;28;20068;-72
2023/02/13 02:01:35;;;;;;;20.05;8.25;;;7.90;99.90;;;;;;4966309;28;20038;-72
2023/02/13 02:04:14;;;;;;;22.30;9.48;;;8.00;99.90;;;;;;4971686;28;20393;-72
2023/02/13 02:06:46;;;;;;;17.85;8.63;;;7.90;99.90;;;;;;4969926;28;20398;-72
2023/02/13 02:09:19;;;;;;;22.95;8.95;;;7.90;99.90;;;;;;4970173;28;20141;-73
2023/02/13 02:12:09;;;;;;;22.02;8.68;;;7.90;99.90;;;;;;4971390;28;20039;-72
2023/02/13 02:14:34;;;;;;;16.85;5.68;;;7.90;99.90;;;;;;4988488;28;20433;-71
2023/02/13 02:17:00;;;;;;;23.40;9.48;;;7.90;99.90;;;;;;4973840;28;20035;-71
2023/02/13 02:19:36;;;;;;;21.45;7.90;;;7.90;99.90;;;;;;4974566;28;20101;-71
2023/02/13 02:22:20;;;;;;;17.20;7.68;;;7.80;99.90;;;;;;4973877;28;20035;-71
2023/02/13 02:25:15;;;;;;;17.83;8.85;;;7.90;99.90;;;;;;4988419;28;20039;-72
2023/02/13 02:27:46;;;;;;;15.82;7.25;;;7.90;99.90;;;;;;4988021;28;20030;-71
2023/02/13 02:30:49;;;;;;;21.40;8.15;;;7.90;99.90;;;;;;4995680;28;20518;-71
2023/02/13 02:33:26;;;;;;;17.73;7.70;;;7.90;99.90;;;;;;5005366;28;20557;-70
2023/02/13 02:36:20;;;;;;;23.30;8.30;;;7.90;99.90;;;;;;4990199;28;20137;-72
2023/02/13 02:39:00;;;;;;;19.52;7.43;;;7.90;99.90;;;;;;4989400;28;20052;-71
2023/02/13 02:42:09;;;;;;;15.70;5.80;;;7.80;99.90;;;;;;4990184;28;20034;-71
2023/02/13 02:44:53;;;;;;;19.23;8.18;;;7.80;99.90;;;;;;4942805;28;20053;-71
2023/02/13 02:50:34;;;;;;;19.90;7.47;;;7.80;99.90;;;;;;4989821;28;20044;-71
2023/02/13 02:53:07;;;;;;;22.83;8.43;;;7.90;99.90;;;;;;4987186;28;20510;-71
2023/02/13 02:55:54;;;;;;;19.80;8.15;;;7.90;99.90;;;;;;4992123;28;20093;-73
2023/02/13 03:07:05;;;;;;;19.67;7.72;;;7.90;99.90;;;;;;4990059;28;20077;-71
2023/02/13 03:15:12;;;;;;;17.30;7.40;;;7.90;99.90;;;;;;4984779;28;20048;-71
2023/02/13 03:23:59;;;;;;;16.13;7.20;;;7.90;99.90;;;;;;4987687;28;20411;-73
2023/02/13 03:26:44;;;;;;;24.95;8.60;;;7.80;99.90;;;;;;4988089;28;20121;-71
2023/02/13 03:32:15;;;;;;;21.25;8.55;;;7.90;99.90;;;;;;4987053;28;20042;-71
2023/02/13 03:37:53;;;;;;;18.98;7.38;;;7.90;99.90;;;;;;4988071;28;20097;-72
2023/02/13 03:43:57;;;;;;;20.42;8.57;;;7.80;99.90;;;;;;4984363;28;20513;-71
2023/02/13 03:46:25;;;;;;;17.23;6.70;;;7.80;99.90;;;;;;5003593;28;20089;-71
2023/02/13 03:51:45;;;;;;;17.48;6.35;;;7.80;99.90;;;;;;4988616;28;20122;-72
2023/02/13 03:54:17;;;;;;;17.65;7.75;;;7.80;99.90;;;;;;4987955;28;20031;-71
2023/02/13 03:59:33;;;;;;;18.17;6.88;;;7.90;99.90;;;;;;4986190;28;20096;-72
2023/02/13 04:02:20;;;;;;;21.67;7.85;;;7.80;99.90;;;;;;4989374;28;20062;-71
2023/02/13 04:04:58;;;;;;;19.65;7.85;;;7.80;99.90;;;;;;4983561;28;20034;-73
2023/02/13 04:07:32;;;;;;;23.75;9.00;;;7.80;99.90;;;;;;4985743;28;20034;-71
2023/02/13 04:10:01;;;;;;;16.77;7.10;;;7.80;99.90;;;;;;4970941;28;20066;-71
2023/02/13 04:12:49;;;;;;;15.20;6.63;;;7.90;99.90;;;;;;4989547;28;20435;-71
2023/02/13 04:15:44;;;;;;;20.50;7.85;;;7.90;99.90;;;;;;5004065;28;20049;-71
2023/02/13 04:18:15;;;;;;;22.90;7.60;;;7.90;99.90;;;;;;4965458;28;20553;-72
2023/02/13 04:20:41;;;;;;;18.55;8.07;;;7.90;99.90;;;;;;4971263;28;20042;-71
2023/02/13 04:23:09;;;;;;;20.05;7.70;;;7.90;99.90;;;;;;4988809;28;20042;-71
2023/02/13 04:25:37;;;;;;;18.60;7.25;;;7.80;99.90;;;;;;4971874;28;20050;-71
2023/02/13 04:28:03;;;;;;;19.70;7.43;;;7.80;99.90;;;;;;4989888;28;20037;-71
2023/02/13 04:30:29;;;;;;;18.73;8.00;;;7.90;99.90;;;;;;4988448;28;20487;-72
2023/02/13 04:32:54;;;;;;;20.80;8.05;;;7.80;99.90;;;;;;4986232;28;20509;-71
2023/02/13 04:35:20;;;;;;;18.50;7.88;;;7.80;99.90;;;;;;4988908;28;20038;-71
2023/02/13 04:37:46;;;;;;;24.25;8.52;;;7.80;99.90;;;;;;4991727;28;20030;-75
2023/02/13 04:40:11;;;;;;;22.20;8.55;;;7.80;99.90;;;;;;4988729;28;20046;-71
2023/02/13 04:42:37;;;;;;;19.98;7.85;;;7.80;99.90;;;;;;4988330;28;20034;-71
2023/02/13 04:45:03;;;;;;;21.02;8.57;;;7.80;99.90;;;;;;4996597;28;20088;-71
2023/02/13 04:47:28;;;;;;;18.27;7.70;;;7.80;99.90;;;;;;4988505;28;20554;-73
2023/02/13 04:49:54;;;;;;;19.98;7.93;;;7.80;99.90;;;;;;4988215;28;20502;-72
2023/02/13 04:52:19;;;;;;;22.23;8.18;;;7.90;99.90;;;;;;4989137;28;20042;-71
2023/02/13 04:54:45;;;;;;;24.20;9.50;;;7.80;99.90;;;;;;4988230;28;20109;-71
2023/02/13 04:57:10;;;;;;;18.40;6.78;;;7.80;99.90;;;;;;4988089;28;20042;-71
2023/02/13 04:59:39;;;;;;;19.65;7.63;;;7.70;99.90;;;;;;4970408;28;20404;-71
2023/02/13 05:02:04;;;;;;;22.27;8.00;;;7.80;99.90;;;;;;4992084;28;20111;-72
2023/02/13 05:04:30;;;;;;;16.20;7.38;;;7.70;99.90;;;;;;4974204;28;20034;-72
2023/02/13 05:06:56;;;;;;;23.45;8.88;;;7.70;99.90;;;;;;4988026;28;20045;-71
2023/02/13 05:09:21;;;;;;;19.33;7.97;;;7.70;99.90;;;;;;4986617;28;20030;-71
2023/02/13 05:11:50;;;;;;;23.70;8.68;;;7.70;99.90;;;;;;4987347;28;20117;-71
2023/02/13 05:14:16;;;;;;;22.48;7.97;;;7.70;99.90;;;;;;4984948;28;20034;-72
2023/02/13 05:16:41;;;;;;;22.67;8.32;;;7.70;99.90;;;;;;4991422;28;20118;-71
2023/02/13 05:19:07;;;;;;;19.98;7.20;;;7.70;99.90;;;;;;4987767;28;20121;-71
2023/02/13 05:24:17;;;;;;;20.73;8.18;;;7.70;99.90;;;;;;4981633;28;20049;-71
2023/02/13 05:26:42;;;;;;;23.17;9.40;;;7.70;99.90;;;;;;4990900;28;20042;-72
2023/02/13 05:29:18;;;;;;;25.13;8.73;;;7.70;99.90;;;;;;4990807;28;20034;-71
2023/02/13 05:31:56;;;;;;;27.40;9.75;;;7.70;99.90;;;;;;4986689;28;20047;-71
2023/02/13 05:34:24;;;;;;;23.90;8.55;;;7.70;99.90;;;;;;4982459;28;20027;-71
2023/02/13 05:36:50;;;;;;;22.02;8.77;;;7.70;99.90;;;;;;4988859;28;20043;-71
2023/02/13 05:39:16;;;;;;;20.70;8.48;;;7.60;99.90;;;;;;4984321;28;20041;-72
2023/02/13 05:41:43;;;;;;;21.38;8.18;;;7.70;99.90;;;;;;4987682;28;20038;-72
2023/02/13 05:44:09;;;;;;;23.00;9.20;;;7.70;99.90;;;;;;4987176;28;20375;-71
2023/02/13 05:46:37;;;;;;;19.30;8.55;;;7.70;99.90;;;;;;4971583;28;20081;-72
2023/02/13 05:49:03;;;;;;;23.15;8.82;;;7.70;99.90;;;;;;4987133;28;20042;-72
2023/02/13 05:51:28;;;;;;;22.58;9.18;;;7.70;99.90;;;;;;4969171;28;20034;-71
2023/02/13 05:53:54;;;;;;;20.38;8.20;;;7.70;99.90;;;;;;4972546;28;20041;-71
2023/02/13 05:56:19;;;;;;;24.17;9.23;;;7.70;99.90;;;;;;4988887;28;20034;-71
2023/02/13 05:58:45;;;;;;;19.08;7.57;;;7.70;99.90;;;;;;4986595;28;20410;-71
2023/02/13 06:01:11;;;;;;;22.30;8.57;;;7.70;99.90;;;;;;4985254;28;20121;-71
2023/02/13 06:03:39;;;;;;;22.73;8.23;;;7.80;99.90;;;;;;4967400;28;20041;-72
2023/02/13 06:06:04;;;;;;;25.35;9.55;;;7.80;99.90;;;;;;4984401;28;20046;-71
2023/02/13 06:08:30;;;;;;;20.80;8.88;;;7.80;99.90;;;;;;4982879;28;20058;-71
2023/02/13 06:10:56;;;;;;;25.73;8.98;;;7.80;99.90;;;;;;4984321;28;20049;-71
2023/02/13 06:13:21;;;;;;;22.30;8.55;;;7.80;99.90;;;;;;4988119;28;20371;-71
2023/02/13 06:15:47;;;;;;;21.15;8.07;;;7.80;99.90;;;;;;4970312;28;20049;-71
2023/02/13 06:18:13;;;;;;;22.85;8.60;;;7.80;99.90;;;;;;4986467;28;20039;-71
2023/02/13 06:20:38;;;;;;;22.02;8.50;;;7.80;99.90;;;;;;4968140;28;20565;-71
2023/02/13 06:23:04;;;;;;;18.75;8.25;;;7.80;99.90;;;;;;4987878;28;20045;-72
2023/02/13 06:25:29;;;;;;;18.73;8.07;;;7.80;99.90;;;;;;4987766;28;20395;-72
2023/02/13 06:27:56;;;;;;;19.15;8.70;;;7.80;99.90;;;;;;4984176;28;20030;-72
2023/02/13 06:30:21;;;;;;;30.92;8.98;;;7.80;99.90;;;;;;4987760;28;20117;-72
2023/02/13 06:32:48;;;;;;;23.27;9.95;;;7.80;99.90;;;;;;4984779;28;20626;-72
2023/02/13 06:35:14;;;;;;;22.15;9.45;;;7.80;99.90;;;;;;4985398;28;20146;-72
2023/02/13 06:37:44;;;;;;;24.75;8.82;;;7.90;99.90;;;;;;4985505;28;20048;-71
2023/02/13 06:40:11;;;;;;;24.35;9.57;;;7.80;99.90;;;;;;4970211;28;20066;-71
2023/02/13 06:42:37;;;;;;;23.70;10.27;;;7.80;99.90;;;;;;4986112;28;20041;-70
2023/02/13 06:45:03;;;;;;;20.75;8.65;;;7.80;99.90;;;;;;4983898;28;20379;-70
2023/02/13 06:47:29;;;;;;;20.38;9.30;;;7.80;99.90;;;;;;4985198;28;20104;-71
2023/02/13 06:49:54;;;;;;;22.40;7.90;;;7.80;99.90;;;;;;4969349;28;20058;-71
2023/02/13 06:52:20;;;;;;;18.38;7.90;;;7.90;99.90;;;;;;4991720;28;20042;-71
2023/02/13 06:54:45;;;;;;;24.20;9.15;;;7.90;99.90;;;;;;4992678;28;20030;-70
2023/02/13 06:57:11;;;;;;;24.92;9.00;;;7.90;99.90;;;;;;4972197;28;20490;-71
2023/02/13 06:59:37;;;;;;;25.70;9.90;;;7.90;99.90;;;;;;4988879;28;20053;-71
2023/02/13 07:02:02;;;;;;;23.23;8.45;;;7.90;99.90;;;;;;4990902;28;20156;-71
2023/02/13 07:04:28;;;;;;;24.95;8.98;;;7.90;99.90;;;;;;4989279;28;20034;-71
2023/02/13 07:06:54;;;;;;;20.08;9.20;;;7.80;99.90;;;;;;4990387;28;20037;-71
2023/02/13 07:09:20;;;;;;;22.05;8.52;;;7.90;99.90;;;;;;4989946;28;20877;-70
2023/02/13 07:11:45;;;;;;;20.67;8.70;;;7.90;99.90;;;;;;4991973;28;20045;-71
2023/02/13 07:14:11;;;;;;;21.67;9.27;;;7.80;99.90;;;;;;4970716;28;20046;-71
2023/02/13 07:16:36;;;;;;;20.83;8.52;;;7.80;99.90;;;;;;4970839;28;20034;-71
2023/02/13 07:19:02;;;;;;;26.10;10.55;;;7.70;99.90;;;;;;4988326;28;20042;-71
2023/02/13 07:21:28;;;;;;;22.20;9.45;;;7.60;99.90;;;;;;5005351;28;20030;-71
2023/02/13 07:23:53;;;;;;;27.25;9.55;;;7.50;99.90;;;;;;4972154;28;20030;-71
2023/02/13 07:26:19;;;;;;;22.92;9.48;;;7.50;99.90;;;;;;4988651;28;20050;-71
2023/02/13 07:28:44;;;;;;;21.25;9.43;;;7.40;99.90;;;;;;4986885;28;20041;-71
2023/02/13 07:31:10;;;;;;;22.90;8.80;;;7.40;99.90;;;;;;4990079;28;20037;-71
2023/02/13 07:33:36;;;;;;;25.58;10.40;;;7.40;99.90;;;;;;4971591;28;20034;-71
2023/02/13 07:36:03;;;;;;;28.27;10.45;;;7.40;99.90;;;;;;4988126;28;20071;-71
2023/02/13 07:38:30;;;;;;;24.50;9.50;;;7.40;99.90;;;;;;4989350;28;20031;-71
2023/02/13 07:40:59;;;;;;;26.30;11.05;;;7.30;99.90;;;;;;4986784;28;20049;-71
2023/02/13 07:43:25;;;;;;;25.17;9.00;;;7.30;99.90;;;;;;4990843;28;20054;-70
2023/02/13 07:45:54;;;;;;;27.35;9.43;;;7.30;99.90;;;;;;4986478;28;20058;-72
2023/02/13 07:48:21;;;;;;;30.23;10.90;;;7.30;99.90;;;;;;4987437;28;20030;-71
2023/02/13 07:50:47;;;;;;;25.35;10.68;;;7.30;99.90;;;;;;4990369;28;20035;-71
2023/02/13 07:53:13;;;;;;;26.58;10.32;;;7.30;99.90;;;;;;4989336;28;20096;-70
2023/02/13 07:55:38;;;;;;;29.00;10.13;;;7.30;99.90;;;;;;4987442;28;20440;-71
2023/02/13 07:58:04;;;;;;;28.98;10.50;;;7.40;99.90;;;;;;4972141;28;20042;-71
2023/02/13 08:00:30;;;;;;;22.45;10.52;;;7.50;99.90;;;;;;4988241;28;20545;-70
2023/02/13 08:02:59;;;;;;;23.05;10.32;;;7.50;99.90;;;;;;4989489;28;20053;-71
2023/02/13 08:05:24;;;;;;;29.95;10.55;;;7.50;99.90;;;;;;4987192;28;20045;-71
2023/02/13 08:07:50;;;;;;;27.50;9.88;;;7.50;99.90;;;;;;4987215;28;20034;-71
2023/02/13 08:13:00;;;;;;;26.38;10.25;;;7.60;99.90;;;;;;4990455;28;20103;-71
2023/02/13 08:15:26;;;;;;;27.48;10.02;;;7.60;99.90;;;;;;4987054;28;20471;-71
2023/02/13 08:17:51;;;;;;;28.60;10.27;;;7.60;99.90;;;;;;4989847;28;20046;-71
2023/02/13 08:20:17;;;;;;;26.40;10.43;;;7.70;99.90;;;;;;4990021;28;20092;-71
2023/02/13 08:22:43;;;;;;;29.73;10.43;;;7.80;99.90;;;;;;4989552;28;20034;-71
2023/02/13 08:25:08;;;;;;;25.60;8.98;;;7.80;99.90;;;;;;4984297;28;20108;-71
2023/02/13 08:27:34;;;;;;;24.73;9.80;;;7.90;99.90;;;;;;4986562;28;20042;-72
2023/02/13 08:30:03;;;;;;;24.67;10.10;;;7.90;99.90;;;;;;4988287;28;20045;-71
2023/02/13 08:32:28;;;;;;;23.25;9.73;;;8.00;99.90;;;;;;4986725;28;20473;-71
2023/02/13 08:34:54;;;;;;;26.02;9.95;;;8.10;99.90;;;;;;4990544;28;20129;-71
2023/02/13 08:37:19;;;;;;;21.42;9.15;;;8.20;99.90;;;;;;4989909;28;20396;-71
2023/02/13 08:39:45;;;;;;;22.38;9.77;;;8.20;99.90;;;;;;4968642;28;20041;-71
2023/02/13 08:42:10;;;;;;;21.00;9.57;;;8.30;99.90;;;;;;4986805;28;20126;-71
2023/02/13 08:44:39;;;;;;;23.33;9.70;;;8.30;99.90;;;;;;4985045;28;20022;-71
2023/02/13 08:47:05;;;;;;;23.23;10.23;;;8.30;99.90;;;;;;4970651;28;20048;-71
2023/02/13 08:49:32;;;;;;;24.60;9.25;;;8.40;99.90;;;;;;4968195;28;20066;-72
2023/02/13 08:51:59;;;;;;;23.67;9.27;;;8.40;99.90;;;;;;4969626;28;20066;-71
2023/02/13 08:54:25;;;;;;;22.98;9.35;;;8.40;99.90;;;;;;4985375;28;20042;-71
2023/02/13 08:56:51;;;;;;;23.60;8.80;;;8.50;99.90;;;;;;4986001;28;20479;-71
2023/02/13 08:59:17;;;;;;;20.48;9.52;;;8.50;99.90;;;;;;4986725;28;20120;-70
2023/02/13 09:01:43;;;;;;;25.02;10.13;;;8.60;99.90;;;;;;4987983;28;20038;-70
2023/02/13 09:04:08;;;;;;;24.00;9.32;;;8.60;99.90;;;;;;4985448;28;20399;-71
2023/02/13 09:06:34;;;;;;;21.42;9.35;;;8.60;99.90;;;;;;4967761;28;20117;-71
2023/02/13 09:08:59;;;;;;;22.40;9.02;;;8.70;99.90;;;;;;4989617;28;20038;-71
2023/02/13 09:11:25;;;;;;;22.23;9.13;;;8.70;99.90;;;;;;4985642;28;20495;-71
2023/02/13 09:13:54;;;;;;;22.27;9.40;;;8.70;99.90;;;;;;4986403;28;20038;-71
2023/02/13 09:16:20;;;;;;;19.95;8.70;;;8.90;99.90;;;;;;4987071;28;20054;-71
2023/02/13 09:18:47;;;;;;;22.20;8.60;;;9.00;99.90;;;;;;4987381;28;20124;-71
2023/02/13 09:21:13;;;;;;;21.67;8.90;;;9.00;99.90;;;;;;4986394;28;20073;-71
2023/02/13 09:23:40;;;;;;;20.73;9.40;;;9.00;99.90;;;;;;4986299;28;20498;-71
2023/02/13 09:26:08;;;;;;;26.58;9.55;;;9.00;99.90;;;;;;4987893;28;20037;-71
2023/02/13 09:28:35;;;;;;;22.55;8.60;;;9.00;99.90;;;;;;4984999;28;20054;-71
2023/02/13 09:31:07;;;;;;;19.83;8.13;;;9.10;99.90;;;;;;4989929;28;20053;-71
2023/02/13 09:33:34;;;;;;;22.05;8.55;;;9.10;99.90;;;;;;4968992;28;20375;-72
2023/02/13 09:36:08;;;;;;;20.80;9.63;;;9.00;99.90;;;;;;4987831;28;20034;-71
2023/02/13 09:38:34;;;;;;;21.85;8.98;;;8.90;99.90;;;;;;4983820;28;20042;-71
2023/02/13 09:41:07;;;;;;;21.02;8.95;;;9.00;99.90;;;;;;4971194;28;20037;-71
2023/02/13 09:43:50;;;;;;;21.27;8.70;;;8.90;99.90;;;;;;4987485;28;20085;-71
2023/02/13 09:46:30;;;;;;;19.17;8.50;;;9.00;99.90;;;;;;4971388;28;20502;-72
2023/02/13 09:49:00;;;;;;;23.02;8.27;;;9.10;99.90;;;;;;4969379;28;20133;-71
2023/02/13 09:51:27;;;;;;;23.17;9.27;;;9.10;99.90;;;;;;4984535;28;20117;-72
2023/02/13 09:54:05;;;;;;;23.40;9.02;;;9.30;99.90;;;;;;4984635;28;20046;-72
2023/02/13 09:56:53;;;;;;;18.35;7.32;;;9.30;99.90;;;;;;4984441;28;20051;-71
2023/02/13 09:59:55;;;;;;;17.95;7.80;;;9.40;99.90;;;;;;4985255;28;20447;-72
2023/02/13 10:02:21;;;;;;;19.05;8.13;;;9.50;99.90;;;;;;4985347;28;20041;-71
2023/02/13 10:05:18;;;;;;;20.98;9.02;;;9.50;99.90;;;;;;4969066;28;20034;-74
2023/02/13 10:08:17;;;;;;;22.63;8.65;;;9.50;99.90;;;;;;4997946;28;20052;-72
2023/02/13 10:11:00;;;;;;;17.25;7.45;;;9.50;99.90;;;;;;4983011;28;20076;-72
2023/02/13 10:13:53;;;;;;;21.10;8.57;;;9.60;99.90;;;;;;4987223;28;20043;-72
2023/02/13 10:16:29;;;;;;;19.50;8.48;;;9.60;99.90;;;;;;4986929;28;20054;-72
2023/02/13 10:19:11;;;;;;;20.52;7.50;;;9.70;99.90;;;;;;4986037;28;20991;-70
2023/02/13 10:21:49;;;;;;;19.60;7.35;;;9.80;99.90;;;;;;5000352;28;20042;-71
2023/02/13 10:24:37;;;;;;;24.17;8.82;;;9.80;99.90;;;;;;4989292;28;20046;-72
2023/02/13 10:27:20;;;;;;;17.58;8.30;;;9.80;99.90;;;;;;4988981;28;20111;-73
2023/02/13 10:30:15;;;;;;;16.98;7.32;;;9.80;99.90;;;;;;4988552;28;20081;-76
2023/02/13 10:32:50;;;;;;;18.98;7.55;;;9.80;99.90;;;;;;4971708;28;20041;-72
2023/02/13 10:35:22;;;;;;;17.88;7.60;;;9.80;99.90;;;;;;4970941;28;20498;-72
2023/02/13 10:37:52;;;;;;;17.63;7.68;;;9.80;99.90;;;;;;4988261;28;20066;-72
2023/02/13 10:40:18;;;;;;;20.90;8.20;;;9.90;99.90;;;;;;4991720;28;20053;-71
2023/02/13 10:43:02;;;;;;;16.60;7.22;;;10.00;99.90;;;;;;5003886;28;20034;-71
2023/02/13 10:45:40;;;;;;;20.30;7.43;;;10.00;99.90;;;;;;5001880;28;20042;-72
2023/02/13 10:48:18;;;;;;;18.02;7.25;;;10.00;99.90;;;;;;5007761;28;20061;-72
2023/02/13 10:51:07;;;;;;;20.65;8.80;;;10.00;99.90;;;;;;4988645;28;20050;-71
2023/02/13 10:53:54;;;;;;;17.15;7.20;;;10.10;99.90;;;;;;4988350;28;20138;-71
2023/02/13 10:56:37;;;;;;;15.73;7.00;;;10.00;99.90;;;;;;4986255;28;21164;-71
2023/02/13 10:59:14;;;;;;;19.35;7.65;;;10.00;99.90;;;;;;4991453;28;20139;-71
2023/02/13 11:01:55;;;;;;;18.65;7.10;;;10.00;99.90;;;;;;4987710;28;20038;-71
2023/02/13 11:04:21;;;;;;;15.65;6.90;;;10.00;99.90;;;;;;4984229;28;20042;-73
2023/02/13 11:06:58;;;;;;;16.85;7.47;;;10.00;99.90;;;;;;4966501;28;20031;-71
2023/02/13 11:09:25;;;;;;;15.57;6.47;;;10.20;99.90;;;;;;4968485;28;20065;-72
2023/02/13 11:11:52;;;;;;;13.63;6.85;;;10.20;99.90;;;;;;4986668;28;20041;-71
2023/02/13 11:14:23;;;;;;;16.75;7.68;;;10.20;99.90;;;;;;4967924;28;20089;-71
2023/02/13 11:16:56;;;;;;;15.50;6.78;;;10.30;99.90;;;;;;4985622;28;20042;-72
2023/02/13 11:19:50;;;;;;;17.13;6.72;;;10.40;99.90;;;;;;4987839;28;20038;-73
2023/02/13 11:22:25;;;;;;;18.00;7.05;;;10.40;99.90;;;;;;4980454;28;20495;-71
2023/02/13 11:25:05;;;;;;;16.40;6.90;;;10.50;99.90;;;;;;4988815;28;20064;-73
2023/02/13 11:27:37;;;;;;;18.92;7.38;;;10.50;99.90;;;;;;4985098;28;20491;-72
2023/02/13 11:30:07;;;;;;;17.83;7.47;;;10.50;99.90;;;;;;5001237;28;20057;-72
2023/02/13 11:32:34;;;;;;;17.75;6.88;;;10.50;99.90;;;;;;4988465;28;20034;-71
2023/02/13 11:35:28;;;;;;;19.38;6.68;;;10.50;99.90;;;;;;4985652;28;20069;-72
2023/02/13 11:38:09;;;;;;;14.20;6.82;;;10.60;99.90;;;;;;4985203;28;20784;-72
2023/02/13 11:40:35;;;;;;;17.52;6.35;;;10.60;99.90;;;;;;4988841;28;20049;-71
2023/02/13 11:43:01;;;;;;;17.33;6.32;;;10.70;99.90;;;;;;4989529;28;20042;-71
2023/02/13 11:45:27;;;;;;;16.02;6.70;;;10.70;99.90;;;;;;4986921;28;20181;-72
2023/02/13 11:47:56;;;;;;;15.18;5.93;;;10.70;99.90;;;;;;4985969;28;20034;-74
2023/02/13 11:50:31;;;;;;;16.58;6.38;;;10.70;99.90;;;;;;4968992;28;20030;-71
2023/02/13 11:53:04;;;;;;;16.60;6.50;;;10.70;99.90;;;;;;4985354;28;20565;-72
2023/02/13 11:55:37;;;;;;;20.45;7.47;;;10.70;99.90;;;;;;4983920;28;20085;-72
2023/02/13 11:58:14;;;;;;;16.85;6.10;;;10.70;99.90;;;;;;4984780;28;20046;-71
2023/02/13 12:00:41;;;;;;;15.63;6.32;;;10.70;99.90;;;;;;4985653;28;20038;-72
2023/02/13 12:03:29;;;;;;;14.73;6.57;;;10.60;99.90;;;;;;4987235;28;20042;-72
2023/02/13 12:06:14;;;;;;;16.60;7.00;;;10.70;99.90;;;;;;4996886;28;20061;-72
2023/02/13 12:08:45;;;;;;;13.27;5.80;;;10.70;99.90;;;;;;4965161;28;20042;-73
2023/02/13 12:11:22;;;;;;;13.82;6.47;;;10.70;99.90;;;;;;4982498;28;20499;-72
2023/02/13 12:13:50;;;;;;;14.85;5.60;;;10.70;99.90;;;;;;4982820;28;20038;-72
2023/02/13 12:16:41;;;;;;;15.95;6.80;;;10.70;99.90;;;;;;4986462;28;20037;-71
2023/02/13 12:19:13;;;;;;;15.38;6.55;;;10.70;99.90;;;;;;4964921;28;20084;-72
2023/02/13 12:21:52;;;;;;;15.38;6.50;;;10.70;99.90;;;;;;4983299;28;20035;-71
2023/02/13 12:24:45;;;;;;;13.48;6.03;;;10.70;99.90;;;;;;4984099;28;20041;-73
2023/02/13 12:27:41;;;;;;;12.82;5.85;;;10.70;99.90;;;;;;4966019;28;20104;-72
2023/02/13 12:30:44;;;;;;;15.60;6.75;;;10.70;99.90;;;;;;4982919;28;20491;-73
2023/02/13 12:33:25;;;;;;;21.65;8.23;;;10.70;99.90;;;;;;4984929;28;20033;-72
2023/02/13 12:36:06;;;;;;;15.13;5.82;;;10.70;99.90;;;;;;4981769;28;20069;-73
2023/02/13 12:38:46;;;;;;;;;;;10.70;99.90;;;;;;4985445;28;20042;-71
2023/02/13 12:41:20;;;;;;;17.93;6.70;;;10.80;99.90;;;;;;4989611;28;19918;-74
2023/02/13 12:44:12;;;;;;;18.90;6.47;;;10.80;99.90;;;;;;4983788;28;20289;-71
2023/02/13 12:47:08;;;;;;;14.60;6.35;;;10.80;99.90;;;;;;4980639;28;20046;-72
2023/02/13 12:49:58;;;;;;;15.05;6.35;;;10.80;99.90;;;;;;4982533;28;20068;-71
2023/02/13 12:52:23;;;;;;;14.27;6.27;;;10.80;99.90;;;;;;4983919;28;20038;-71
2023/02/13 12:55:23;;;;;;;17.17;6.15;;;10.80;99.90;;;;;;4965830;28;20649;-72
2023/02/13 12:58:01;;;;;;;12.33;5.03;;;10.80;99.90;;;;;;4982515;28;20030;-72
2023/02/13 13:00:48;;;;;;;17.27;6.55;;;10.80;99.90;;;;;;4983306;28;20793;-73
2023/02/13 13:03:38;;;;;;;14.77;6.03;;;10.80;99.90;;;;;;4997434;28;20775;-72
2023/02/13 13:06:19;;;;;;;14.88;5.90;;;10.90;99.90;;;;;;4982093;28;20038;-72
2023/02/13 13:08:47;;;;;;;;;;;10.90;99.90;;;;;;4984262;28;20065;-71
2023/02/13 13:11:16;;;;;;;13.80;6.15;;;10.90;99.90;;;;;;4983270;28;19924;-73
2023/02/13 13:13:59;;;;;;;15.43;6.72;;;10.90;99.90;;;;;;4982540;28;20030;-71
2023/02/13 13:17:02;;;;;;;13.70;6.15;;;11.00;99.90;;;;;;4985924;28;20050;-73
2023/02/13 13:19:46;;;;;;;12.25;5.70;;;11.00;99.90;;;;;;4981559;28;20053;-71
2023/02/13 13:22:36;;;;;;;16.98;6.40;;;11.00;99.90;;;;;;4998337;28;20042;-73
2023/02/13 13:25:33;;;;;;;18.87;6.90;;;11.00;99.90;;;;;;4994989;28;20038;-71
2023/02/13 13:28:06;;;;;;;13.32;5.55;;;11.00;99.90;;;;;;4935078;28;20407;-72
2023/02/13 13:30:34;;;;;;;12.93;5.47;;;11.00;99.90;;;;;;4983169;28;20034;-72
2023/02/13 13:33:21;;;;;;;14.55;7.35;;;11.00;99.90;;;;;;4983277;28;20114;-71
2023/02/13 13:36:08;;;;;;;15.35;5.63;;;11.10;99.90;;;;;;4982711;28;20038;-73
2023/02/13 13:39:13;;;;;;;11.68;5.65;;;11.10;99.90;;;;;;4983932;28;20394;-72
2023/02/13 13:42:24;;;;;;;12.95;6.28;;;11.10;99.90;;;;;;4981999;28;20695;-72
2023/02/13 13:45:18;;;;;;;16.88;6.43;;;11.10;99.90;;;;;;4980176;28;20064;-72
2023/02/13 13:48:15;;;;;;;14.73;6.32;;;11.10;99.90;;;;;;4983412;28;20085;-72
2023/02/13 13:50:43;;;;;;;15.05;5.63;;;11.10;99.90;;;;;;4984203;28;20034;-71
2023/02/13 13:53:08;;;;;;;12.85;5.78;;;11.10;99.90;;;;;;4984439;28;20088;-72